createdAt,value
2019-04-04T00:01:32.461Z,100.00
2019-04-04T00:04:01.637Z,100.00
2019-04-04T00:06:30.602Z,100.00
2019-04-04T00:09:00.081Z,100.00
2019-04-04T00:11:30.448Z,100.00
2019-04-04T00:13:59.446Z,100.00
2019-04-04T00:16:28.436Z,100.00
2019-04-04T00:19:02.421Z,100.00
2019-04-04T00:21:32.049Z,100.00
2019-04-04T00:24:02.222Z,100.00
2019-04-04T00:26:31.250Z,100.00
2019-04-04T00:29:01.787Z,100.00
2019-04-04T00:31:30.890Z,100.00
2019-04-04T00:33:59.908Z,100.00
2019-04-04T00:36:28.911Z,100.00
2019-04-04T00:38:58.029Z,100.00
2019-04-04T00:41:27.096Z,100.00
2019-04-04T00:43:56.231Z,100.00
2019-04-04T00:46:25.231Z,100.00
2019-04-04T00:48:54.335Z,100.00
2019-04-04T00:51:23.405Z,100.00
2019-04-04T00:53:52.378Z,100.00
2019-04-04T00:56:21.406Z,100.00
2019-04-04T00:58:52.072Z,100.00
2019-04-04T01:01:21.139Z,100.00
2019-04-04T01:03:50.158Z,100.00
2019-04-04T01:06:19.250Z,100.00
2019-04-04T01:08:48.233Z,100.00
2019-04-04T01:11:18.297Z,100.00
2019-04-04T01:13:48.061Z,100.00
2019-04-04T01:16:17.052Z,100.00
2019-04-04T01:18:46.067Z,100.00
2019-04-04T01:21:15.046Z,100.00
2019-04-04T01:23:44.194Z,100.00
2019-04-04T01:26:13.230Z,100.00
2019-04-04T01:28:42.239Z,100.00
2019-04-04T01:31:11.281Z,100.00
2019-04-04T01:33:42.007Z,100.00
2019-04-04T01:36:10.989Z,100.00
2019-04-04T01:38:40.015Z,100.00
2019-04-04T01:41:09.083Z,100.00
2019-04-04T01:43:40.061Z,100.00
2019-04-04T01:46:09.015Z,100.00
2019-04-04T01:48:38.041Z,100.00
2019-04-04T01:51:07.913Z,100.00
2019-04-04T01:53:37.289Z,100.00
2019-04-04T01:56:07.017Z,100.00
2019-04-04T01:58:36.122Z,100.00
2019-04-04T02:01:05.271Z,100.00
2019-04-04T02:03:34.324Z,100.00
2019-04-04T02:06:03.524Z,100.00
2019-04-04T02:08:32.521Z,100.00
2019-04-04T02:11:01.541Z,100.00
2019-04-04T02:13:30.607Z,100.00
2019-04-04T02:15:59.704Z,100.00
2019-04-04T02:18:28.783Z,100.00
2019-04-04T02:20:58.452Z,100.00
2019-04-04T02:23:27.496Z,100.00
2019-04-04T02:25:56.482Z,100.00
2019-04-04T02:28:25.514Z,100.00
2019-04-04T02:30:54.770Z,100.00
2019-04-04T02:33:23.757Z,100.00
2019-04-04T02:35:52.870Z,100.00
2019-04-04T02:38:21.872Z,100.00
2019-04-04T02:40:50.912Z,100.00
2019-04-04T02:43:19.942Z,100.00
2019-04-04T02:45:48.967Z,100.00
2019-04-04T02:48:18.074Z,100.00
2019-04-04T02:50:47.066Z,100.00
2019-04-04T02:53:19.230Z,100.00
2019-04-04T02:55:46.867Z,100.00
2019-04-04T02:58:15.932Z,100.00
2019-04-04T03:00:44.937Z,100.00
2019-04-04T03:03:14.175Z,100.00
2019-04-04T03:05:43.386Z,100.00
2019-04-04T03:08:14.280Z,100.00
2019-04-04T03:10:47.710Z,100.00
2019-04-04T03:13:14.302Z,100.00
2019-04-04T03:15:47.391Z,100.00
2019-04-04T03:18:14.215Z,100.00
2019-04-04T03:20:43.240Z,100.00
2019-04-04T03:23:12.234Z,100.00
2019-04-04T03:25:41.220Z,100.00
2019-04-04T03:28:10.242Z,100.00
2019-04-04T03:30:39.213Z,100.00
2019-04-04T03:33:10.242Z,100.00
2019-04-04T03:35:39.276Z,100.00
2019-04-04T03:38:08.304Z,100.00
2019-04-04T03:40:37.262Z,100.00
2019-04-04T03:43:06.371Z,100.00
2019-04-04T03:45:35.470Z,100.00
2019-04-04T03:48:04.646Z,100.00
2019-04-04T03:50:34.515Z,100.00
2019-04-04T03:53:03.478Z,100.00
2019-04-04T03:55:32.528Z,100.00
2019-04-04T03:58:01.533Z,100.00
2019-04-04T04:00:31.712Z,100.00
2019-04-04T04:03:01.025Z,100.00
2019-04-04T04:05:34.674Z,100.00
2019-04-04T04:08:01.876Z,100.00
2019-04-04T04:10:33.400Z,100.00
2019-04-04T04:13:01.723Z,100.00
2019-04-04T04:15:30.767Z,100.00
2019-04-04T04:17:59.807Z,100.00
2019-04-04T04:20:29.081Z,100.00
2019-04-04T04:22:58.269Z,100.00
2019-04-04T04:25:27.332Z,100.00
2019-04-04T04:27:56.624Z,100.00
2019-04-04T04:30:25.566Z,100.00
2019-04-04T04:32:57.145Z,100.00
2019-04-04T04:35:25.456Z,100.00
2019-04-04T04:37:54.452Z,100.00
2019-04-04T04:40:23.526Z,100.00
2019-04-04T04:42:52.493Z,100.00
2019-04-04T04:45:21.553Z,100.00
2019-04-04T04:47:50.539Z,100.00
2019-04-04T04:50:19.520Z,100.00
2019-04-04T04:52:48.653Z,100.00
2019-04-04T04:55:17.743Z,100.00
2019-04-04T04:57:46.717Z,100.00
2019-04-04T05:00:16.765Z,100.00
2019-04-04T05:02:45.881Z,100.00
2019-04-04T05:05:15.069Z,100.00
2019-04-04T05:07:44.039Z,100.00
2019-04-04T05:10:15.122Z,100.00
2019-04-04T05:12:44.250Z,100.00
2019-04-04T05:15:13.345Z,100.00
2019-04-04T05:17:42.589Z,100.00
2019-04-04T05:20:12.993Z,100.00
2019-04-04T05:22:42.054Z,100.00
2019-04-04T05:25:11.214Z,100.00
2019-04-04T05:27:40.309Z,100.00
2019-04-04T05:30:09.477Z,100.00
2019-04-04T05:32:38.474Z,100.00
2019-04-04T05:35:08.390Z,100.00
2019-04-04T05:37:38.249Z,100.00
2019-04-04T05:40:08.800Z,100.00
2019-04-04T05:42:37.781Z,100.00
2019-04-04T05:45:07.241Z,100.00
2019-04-04T05:47:36.366Z,100.00
2019-04-04T05:50:06.618Z,100.00
2019-04-04T05:52:35.871Z,100.00
2019-04-04T05:55:05.117Z,100.00
2019-04-04T05:57:34.254Z,100.00
2019-04-04T06:00:04.931Z,100.00
2019-04-04T06:02:33.924Z,100.00
2019-04-04T06:05:02.999Z,100.00
2019-04-04T06:07:32.100Z,100.00
2019-04-04T06:10:01.193Z,100.00
2019-04-04T06:12:30.204Z,100.00
2019-04-04T06:15:00.551Z,100.00
2019-04-04T06:17:30.021Z,100.00
2019-04-04T06:20:01.302Z,100.00
2019-04-04T06:22:30.335Z,100.00
2019-04-04T06:24:59.930Z,100.00
2019-04-04T06:27:29.003Z,100.00
2019-04-04T06:29:59.926Z,100.00
2019-04-04T06:32:29.020Z,100.00
2019-04-04T06:35:01.342Z,100.00
2019-04-04T06:37:30.355Z,100.00
2019-04-04T06:40:05.933Z,100.00
2019-04-04T06:42:36.243Z,100.00
2019-04-04T06:45:07.132Z,100.00
2019-04-04T06:47:36.156Z,100.00
2019-04-04T06:50:08.098Z,100.00
2019-04-04T06:52:37.567Z,100.00
2019-04-04T06:55:08.298Z,100.00
2019-04-04T06:57:37.655Z,100.00
2019-04-04T07:00:08.301Z,100.00
2019-04-04T07:02:38.032Z,100.00
2019-04-04T07:05:10.604Z,100.00
2019-04-04T07:07:43.110Z,100.00
2019-04-04T07:10:11.010Z,100.00
2019-04-04T07:12:39.993Z,100.00
2019-04-04T07:15:12.477Z,100.00
2019-04-04T07:17:41.309Z,100.00
2019-04-04T07:20:10.706Z,100.00
2019-04-04T07:22:39.707Z,100.00
2019-04-04T07:25:09.037Z,100.00
2019-04-04T07:27:38.199Z,100.00
2019-04-04T07:30:07.743Z,100.00
2019-04-04T07:32:36.786Z,100.00
2019-04-04T07:35:06.413Z,100.00
2019-04-04T07:37:35.465Z,100.00
2019-04-04T07:40:04.768Z,100.00
2019-04-04T07:42:33.817Z,100.00
2019-04-04T07:45:02.884Z,100.00
2019-04-04T07:47:31.965Z,100.00
2019-04-04T07:50:01.157Z,100.00
2019-04-04T07:52:32.854Z,100.00
2019-04-04T07:55:00.902Z,100.00
2019-04-04T07:57:30.398Z,100.00
2019-04-04T07:59:59.789Z,100.00
2019-04-04T08:02:28.771Z,100.00
2019-04-04T08:04:57.816Z,100.00
2019-04-04T08:07:26.883Z,100.00
2019-04-04T08:09:55.865Z,100.00
2019-04-04T08:12:25.040Z,100.00
2019-04-04T08:14:54.046Z,100.00
2019-04-04T08:17:23.170Z,100.00
2019-04-04T08:19:59.659Z,100.00
2019-04-04T08:22:23.016Z,100.00
2019-04-04T08:24:52.162Z,100.00
2019-04-04T08:27:21.170Z,100.00
2019-04-04T08:29:50.206Z,100.00
2019-04-04T08:32:19.237Z,100.00
2019-04-04T08:34:48.371Z,100.00
2019-04-04T08:37:17.478Z,100.00
2019-04-04T08:39:46.540Z,100.00
2019-04-04T08:42:15.628Z,100.00
2019-04-04T08:44:44.686Z,100.00
2019-04-04T08:47:13.775Z,100.00
2019-04-04T08:49:42.813Z,100.00
2019-04-04T08:52:16.904Z,100.00
2019-04-04T08:54:42.573Z,100.00
2019-04-04T08:57:11.568Z,100.00
2019-04-04T08:59:40.629Z,100.00
2019-04-04T09:02:09.640Z,100.00
2019-04-04T09:04:38.714Z,100.00
2019-04-04T09:07:07.703Z,99.07
2019-04-04T09:09:36.738Z,99.98
2019-04-04T09:12:05.851Z,99.98
2019-04-04T09:14:35.004Z,97.78
2019-04-04T09:17:04.137Z,97.40
2019-04-04T09:19:33.154Z,98.19
2019-04-04T09:22:02.186Z,99.00
2019-04-04T09:24:31.364Z,98.48
2019-04-04T09:27:00.511Z,98.88
2019-04-04T09:29:29.501Z,97.06
2019-04-04T09:32:01.321Z,96.38
2019-04-04T09:34:30.319Z,94.73
2019-04-04T09:36:59.450Z,96.42
2019-04-04T09:39:28.474Z,95.73
2019-04-04T09:41:57.662Z,95.00
2019-04-04T09:44:26.633Z,94.76
2019-04-04T09:47:05.330Z,97.68
2019-04-04T09:49:26.894Z,97.05
2019-04-04T09:51:57.404Z,95.70
2019-04-04T09:56:56.071Z,97.36
2019-04-04T09:59:25.043Z,97.70
2019-04-04T10:01:54.104Z,97.70
2019-04-04T10:04:23.156Z,93.50
2019-04-04T10:06:52.177Z,96.34
2019-04-04T10:09:21.243Z,94.10
2019-04-04T10:11:50.305Z,93.35
2019-04-04T10:14:24.819Z,93.35
2019-04-04T10:16:55.072Z,94.10
2019-04-04T10:19:24.134Z,96.17
2019-04-04T10:21:53.228Z,96.17
2019-04-04T10:24:22.226Z,91.84
2019-04-04T10:26:51.278Z,91.18
2019-04-04T10:29:20.357Z,92.69
2019-04-04T10:31:49.402Z,92.69
2019-04-04T10:34:18.407Z,89.52
2019-04-04T10:36:47.466Z,89.52
2019-04-04T10:39:28.271Z,87.13
2019-04-04T10:41:47.392Z,87.13
2019-04-04T10:44:16.427Z,87.01
2019-04-04T10:46:45.559Z,86.21
2019-04-04T10:49:14.596Z,86.63
2019-04-04T10:51:43.576Z,86.63
2019-04-04T10:54:12.592Z,91.78
2019-04-04T10:56:41.712Z,87.35
2019-04-04T10:59:10.773Z,85.78
2019-04-04T11:01:39.801Z,88.96
2019-04-04T11:04:08.832Z,90.82
2019-04-04T11:06:37.946Z,85.43
2019-04-04T11:09:08.674Z,85.03
2019-04-04T11:11:37.682Z,86.14
2019-04-04T11:14:06.781Z,86.48
2019-04-04T11:16:35.856Z,83.85
2019-04-04T11:19:06.322Z,87.16
2019-04-04T11:21:35.303Z,84.05
2019-04-04T11:24:04.503Z,83.07
2019-04-04T11:26:33.467Z,83.19
2019-04-04T11:29:02.480Z,83.48
2019-04-04T11:31:31.536Z,82.09
2019-04-04T11:34:00.591Z,83.04
2019-04-04T11:36:29.674Z,82.10
2019-04-04T11:39:04.094Z,81.14
2019-04-04T11:41:34.780Z,81.14
2019-04-04T11:44:03.924Z,83.05
2019-04-04T11:46:32.984Z,81.75
2019-04-04T11:49:02.066Z,86.31
2019-04-04T11:51:31.070Z,80.94
2019-04-04T11:54:00.075Z,80.34
2019-04-04T11:56:29.522Z,80.42
2019-04-04T11:58:58.695Z,81.19
2019-04-04T12:01:28.491Z,83.96
2019-04-04T12:03:57.613Z,82.20
2019-04-04T12:06:26.691Z,80.67
2019-04-04T12:08:55.800Z,78.52
2019-04-04T12:11:24.800Z,81.56
2019-04-04T12:16:22.073Z,82.20
2019-04-04T12:18:51.168Z,81.94
2019-04-04T12:21:20.321Z,78.91
2019-04-04T12:23:51.452Z,78.91
2019-04-04T12:26:20.295Z,76.87
2019-04-04T12:28:49.342Z,77.17
2019-04-04T12:31:18.328Z,77.17
2019-04-04T12:33:47.300Z,80.53
2019-04-04T12:36:24.546Z,74.12
2019-04-04T12:38:47.146Z,75.82
2019-04-04T12:41:16.160Z,78.04
2019-04-04T12:43:45.247Z,75.94
2019-04-04T12:46:14.275Z,76.22
2019-04-04T12:48:43.427Z,76.11
2019-04-04T12:51:12.598Z,76.11
2019-04-04T12:53:41.679Z,76.96
2019-04-04T12:56:10.825Z,77.46
2019-04-04T12:58:39.965Z,79.95
2019-04-04T13:01:09.074Z,80.94
2019-04-04T13:03:38.108Z,77.99
2019-04-04T13:06:07.282Z,76.88
2019-04-04T13:08:36.291Z,76.80
2019-04-04T13:11:05.531Z,75.45
2019-04-04T13:13:34.569Z,73.45
2019-04-04T13:16:03.664Z,72.77
2019-04-04T13:18:32.650Z,71.35
2019-04-04T13:21:01.835Z,72.54
2019-04-04T13:23:30.930Z,73.67
2019-04-04T13:25:59.948Z,72.21
2019-04-04T13:28:29.070Z,72.28
2019-04-04T13:30:58.246Z,72.37
2019-04-04T13:33:27.259Z,73.19
2019-04-04T13:35:56.934Z,70.72
2019-04-04T13:38:25.896Z,67.25
2019-04-04T13:40:54.966Z,67.25
2019-04-04T13:43:23.996Z,65.41
2019-04-04T13:45:53.072Z,69.46
2019-04-04T13:48:22.241Z,66.19
2019-04-04T13:50:51.365Z,67.63
2019-04-04T13:53:20.965Z,67.63
2019-04-04T13:55:50.232Z,66.59
2019-04-04T13:58:21.910Z,67.11
2019-04-04T14:00:50.174Z,70.69
2019-04-04T14:03:19.283Z,67.98
2019-04-04T14:05:48.286Z,67.91
2019-04-04T14:08:17.405Z,69.71
2019-04-04T14:10:57.651Z,71.58
2019-04-04T14:13:17.369Z,71.19
2019-04-04T14:15:46.556Z,71.95
2019-04-04T14:18:38.085Z,74.22
2019-04-04T14:21:03.560Z,68.72
2019-04-04T14:23:27.658Z,70.55
2019-04-04T14:25:59.551Z,71.67
2019-04-04T14:28:28.558Z,69.82
2019-04-04T14:31:01.294Z,69.44
2019-04-04T14:33:30.388Z,68.58
2019-04-04T14:35:59.403Z,69.32
2019-04-04T14:38:28.429Z,67.61
2019-04-04T14:41:10.192Z,68.18
2019-04-04T14:43:30.039Z,68.40
2019-04-04T14:45:59.214Z,67.73
2019-04-04T14:48:28.332Z,69.23
2019-04-04T14:50:58.478Z,69.72
2019-04-04T14:53:27.623Z,70.15
2019-04-04T14:55:56.784Z,70.37
2019-04-04T14:58:25.871Z,70.63
2019-04-04T15:00:54.982Z,72.19
2019-04-04T15:03:24.008Z,72.97
2019-04-04T15:05:53.079Z,72.75
2019-04-04T15:08:22.285Z,72.43
2019-04-04T15:10:52.491Z,72.91
2019-04-04T15:13:21.822Z,75.72
2019-04-04T15:16:12.596Z,74.61
2019-04-04T15:18:41.789Z,77.19
2019-04-04T15:21:11.089Z,76.08
2019-04-04T15:23:40.212Z,76.62
2019-04-04T15:26:09.884Z,76.62
2019-04-04T15:28:39.109Z,75.36
2019-04-04T15:31:08.241Z,77.73
2019-04-04T15:33:37.430Z,75.75
2019-04-04T15:36:07.862Z,75.27
2019-04-04T15:38:36.896Z,75.27
2019-04-04T15:41:06.168Z,74.27
2019-04-04T15:43:35.224Z,73.45
2019-04-04T15:46:04.432Z,74.50
2019-04-04T15:48:33.449Z,74.46
2019-04-04T15:51:02.605Z,76.83
2019-04-04T15:53:31.757Z,75.84
2019-04-04T15:56:03.285Z,75.84
2019-04-04T15:58:32.265Z,77.34
2019-04-04T16:01:01.414Z,77.34
2019-04-04T16:03:30.411Z,75.59
2019-04-04T16:05:59.570Z,75.94
2019-04-04T16:08:28.590Z,73.80
2019-04-04T16:10:59.734Z,75.29
2019-04-04T16:13:28.501Z,76.53
2019-04-04T16:15:57.688Z,75.73
2019-04-04T16:18:26.779Z,75.95
2019-04-04T16:20:55.818Z,76.08
2019-04-04T16:23:24.965Z,75.45
2019-04-04T16:25:58.170Z,75.30
2019-04-04T16:28:27.149Z,76.16
2019-04-04T16:30:56.246Z,76.31
2019-04-04T16:33:26.581Z,78.53
2019-04-04T16:35:55.692Z,78.53
2019-04-04T16:38:24.781Z,77.60
2019-04-04T16:40:53.966Z,77.96
2019-04-04T16:43:23.072Z,77.43
2019-04-04T16:45:52.127Z,76.78
2019-04-04T16:48:21.212Z,76.78
2019-04-04T16:50:50.318Z,75.55
2019-04-04T16:53:19.400Z,75.55
2019-04-04T16:55:48.449Z,75.10
2019-04-04T16:58:17.636Z,76.87
2019-04-04T17:00:46.774Z,76.23
2019-04-04T17:03:15.881Z,75.04
2019-04-04T17:05:45.066Z,75.80
2019-04-04T17:08:14.230Z,75.46
2019-04-04T17:10:43.284Z,75.35
2019-04-04T17:13:12.421Z,75.24
2019-04-04T17:15:41.603Z,75.10
2019-04-04T17:18:10.676Z,73.96
2019-04-04T17:20:39.720Z,75.27
2019-04-04T17:23:08.859Z,75.88
2019-04-04T17:25:37.861Z,75.17
2019-04-04T17:28:06.884Z,75.63
2019-04-04T17:30:36.073Z,75.63
2019-04-04T17:33:05.595Z,75.15
2019-04-04T17:35:34.886Z,76.17
2019-04-04T17:38:09.305Z,74.81
2019-04-04T17:40:38.597Z,75.74
2019-04-04T17:43:07.626Z,76.96
2019-04-04T17:45:36.954Z,75.41
2019-04-04T17:48:06.093Z,74.89
2019-04-04T17:50:35.678Z,75.96
2019-04-04T17:53:05.418Z,75.96
2019-04-04T17:55:34.683Z,74.31
2019-04-04T17:58:03.902Z,74.65
2019-04-04T18:00:33.002Z,75.27
2019-04-04T18:03:02.005Z,75.95
2019-04-04T18:05:31.103Z,76.53
2019-04-04T18:08:01.668Z,76.73
2019-04-04T18:10:31.079Z,78.08
2019-04-04T18:13:00.210Z,78.10
2019-04-04T18:15:29.422Z,77.63
2019-04-04T18:17:58.429Z,77.85
2019-04-04T18:20:27.706Z,79.45
2019-04-04T18:22:57.355Z,77.65
2019-04-04T18:25:26.452Z,76.43
2019-04-04T18:27:55.473Z,77.04
2019-04-04T18:30:24.610Z,78.37
2019-04-04T18:32:53.602Z,80.50
2019-04-04T18:35:23.154Z,80.43
2019-04-04T18:37:52.253Z,78.83
2019-04-04T18:40:21.549Z,80.86
2019-04-04T18:42:53.460Z,82.15
2019-04-04T18:47:49.930Z,80.94
2019-04-04T18:50:19.096Z,79.93
2019-04-04T18:52:48.119Z,80.99
2019-04-04T18:55:19.864Z,79.44
2019-04-04T18:57:48.424Z,80.80
2019-04-04T19:00:18.703Z,79.44
2019-04-04T19:02:47.923Z,79.44
2019-04-04T19:05:17.116Z,81.17
2019-04-04T19:07:46.204Z,81.17
2019-04-04T19:10:15.706Z,80.37
2019-04-04T19:12:46.048Z,81.52
2019-04-04T19:15:15.355Z,81.52
2019-04-04T19:17:44.451Z,79.82
2019-04-04T19:20:13.900Z,79.82
2019-04-04T19:22:42.969Z,81.94
2019-04-04T19:25:15.242Z,79.48
2019-04-04T19:27:44.305Z,79.48
2019-04-04T19:30:15.558Z,80.49
2019-04-04T19:32:44.610Z,80.49
2019-04-04T19:35:14.259Z,81.52
2019-04-04T19:37:43.373Z,81.52
2019-04-04T19:40:12.942Z,83.34
2019-04-04T19:42:43.067Z,82.22
2019-04-04T19:45:12.773Z,83.46
2019-04-04T19:47:41.830Z,82.13
2019-04-04T19:50:11.669Z,83.56
2019-04-04T19:52:40.766Z,85.32
2019-04-04T19:55:10.191Z,84.36
2019-04-04T19:57:39.326Z,85.59
2019-04-04T20:00:09.644Z,84.69
2019-04-04T20:02:38.731Z,85.99
2019-04-04T20:05:08.040Z,87.74
2019-04-04T20:07:38.234Z,87.95
2019-04-04T20:10:07.685Z,85.14
2019-04-04T20:12:36.731Z,86.15
2019-04-04T20:15:06.649Z,88.23
2019-04-04T20:17:35.843Z,86.75
2019-04-04T20:20:06.721Z,87.29
2019-04-04T20:22:35.864Z,89.58
2019-04-04T20:25:05.241Z,89.11
2019-04-04T20:27:34.381Z,90.00
2019-04-04T20:30:03.546Z,90.91
2019-04-04T20:32:32.552Z,91.51
2019-04-04T20:35:01.729Z,89.22
2019-04-04T20:37:30.763Z,91.75
2019-04-04T20:39:59.913Z,92.57
2019-04-04T20:45:03.661Z,92.33
2019-04-04T20:47:33.855Z,91.68
2019-04-04T20:50:03.085Z,91.84
2019-04-04T20:52:32.183Z,91.32
2019-04-04T20:55:01.152Z,92.41
2019-04-04T20:57:30.322Z,92.62
2019-04-04T20:59:59.425Z,92.62
2019-04-04T21:05:03.201Z,92.79
2019-04-04T21:07:32.246Z,92.86
2019-04-04T21:10:02.771Z,91.16
2019-04-04T21:12:31.816Z,91.16
2019-04-04T21:15:01.173Z,93.36
2019-04-04T21:17:30.149Z,93.36
2019-04-04T21:19:59.327Z,94.40
2019-04-04T21:22:28.374Z,92.76
2019-04-04T21:24:57.470Z,92.72
2019-04-04T21:27:26.483Z,93.39
2019-04-04T21:29:55.470Z,93.39
2019-04-04T21:32:24.611Z,95.42
2019-04-04T21:34:53.704Z,94.69
2019-04-04T21:37:22.846Z,94.54
2019-04-04T21:39:51.809Z,93.82
2019-04-04T21:42:20.816Z,92.68
2019-04-04T21:44:49.843Z,92.68
2019-04-04T21:47:18.831Z,92.95
2019-04-04T21:49:49.180Z,93.39
2019-04-04T21:52:18.295Z,94.35
2019-04-04T21:54:47.295Z,95.14
2019-04-04T21:57:16.390Z,93.53
2019-04-04T21:59:45.479Z,93.53
2019-04-04T22:02:14.811Z,92.69
2019-04-04T22:04:44.009Z,91.47
2019-04-04T22:07:13.151Z,92.20
2019-04-04T22:09:42.330Z,92.83
2019-04-04T22:12:11.368Z,93.31
2019-04-04T22:14:40.497Z,94.36
2019-04-04T22:17:09.619Z,92.60
2019-04-04T22:19:38.649Z,91.41
2019-04-04T22:22:07.686Z,92.80
2019-04-04T22:24:36.730Z,91.09
2019-04-04T22:27:05.933Z,90.62
2019-04-04T22:29:34.913Z,90.16
2019-04-04T22:32:03.996Z,91.94
2019-04-04T22:34:32.998Z,92.44
2019-04-04T22:37:01.975Z,91.17
2019-04-04T22:39:30.975Z,90.63
2019-04-04T22:44:35.333Z,90.62
2019-04-04T22:47:04.464Z,91.28
2019-04-04T22:49:33.500Z,91.28
2019-04-04T22:52:02.520Z,92.20
2019-04-04T22:54:31.502Z,93.09
2019-04-04T22:57:00.536Z,93.56
2019-04-04T22:59:29.551Z,92.00
2019-04-04T23:01:58.597Z,91.92
2019-04-04T23:04:27.607Z,93.89
2019-04-04T23:06:56.709Z,95.39
2019-04-04T23:09:25.845Z,93.41
2019-04-04T23:11:54.861Z,95.62
2019-04-04T23:14:23.970Z,96.58
2019-04-04T23:16:52.991Z,96.34
2019-04-04T23:19:22.155Z,96.67
2019-04-04T23:21:51.148Z,95.56
2019-04-04T23:24:20.209Z,95.56
2019-04-04T23:26:49.195Z,96.88
2019-04-04T23:29:18.197Z,97.57
2019-04-04T23:31:47.201Z,97.62
2019-04-04T23:34:16.242Z,97.62
2019-04-04T23:36:45.271Z,97.95
2019-04-04T23:39:14.325Z,96.99
2019-04-04T23:41:43.426Z,98.47
2019-04-04T23:44:12.497Z,97.99
2019-04-04T23:46:41.506Z,98.04
2019-04-04T23:49:10.673Z,98.63
2019-04-04T23:51:39.763Z,98.89
2019-04-04T23:54:08.895Z,99.26
2019-04-04T23:56:37.954Z,99.94
2019-04-04T23:59:06.965Z,99.28
